Terminal Aerodrome Forecast
Issued by NWS Mt. Holly, NJ

Home | Current Version | Previous Version | Text Only | Print | Product List | Glossary On
Versions: 1 2 3 4 5 6 7 8 9 10 11 12 13 14 15 16 17 18 19 20
741
FTUS41 KPHI 101134
TAFILG
TAF
KILG 101134Z 1012/1112 26006KT P6SM FEW070 BKN200
     FM101600 29013G20KT P6SM BKN050 BKN200
     FM102200 29008KT P6SM SCT050
     FM110800 VRB02KT P6SM OVC120=

USA.gov is the U.S. government's official web portal to all federal, state and local government web resources and services.